createdAt,value
2018-12-10T00:00:27.079Z,99864.125
2018-12-10T00:03:54.934Z,99873.742
2018-12-10T00:07:22.805Z,99872.171
2018-12-10T00:10:50.677Z,99876.984
2018-12-10T00:14:18.650Z,99883.718
2018-12-10T00:17:46.507Z,99884.015
2018-12-10T00:21:14.379Z,99900.015
2018-12-10T00:24:42.249Z,99901.718
2018-12-10T00:28:11.098Z,99896.484
2018-12-10T00:31:38.977Z,99921.445
2018-12-10T00:35:06.852Z,99914.109
2018-12-10T00:38:35.696Z,99924.648
2018-12-10T00:42:04.556Z,99926.625
2018-12-10T00:45:32.411Z,99925.382
2018-12-10T00:49:00.257Z,99939.031
2018-12-10T00:52:28.098Z,99940.89
2018-12-10T00:55:55.950Z,99944.515
2018-12-10T00:59:23.801Z,99943.875
2018-12-10T01:02:51.638Z,99952.218
2018-12-10T01:06:19.488Z,99958.328
2018-12-10T01:09:47.336Z,99957.304
2018-12-10T01:13:15.170Z,99954.804
2018-12-10T01:16:43.019Z,99962.578
2018-12-10T01:20:10.869Z,99974.234
2018-12-10T01:23:38.719Z,99965.484
2018-12-10T01:27:06.553Z,99967.945
2018-12-10T01:30:34.404Z,99973.031
2018-12-10T01:34:02.258Z,99977.226
2018-12-10T01:37:30.089Z,99980.695
2018-12-10T01:40:57.937Z,99986.609
2018-12-10T01:44:25.795Z,99996.382
2018-12-10T01:47:54.195Z,100001.73
2018-12-10T01:51:22.042Z,100005.76
2018-12-10T01:54:49.887Z,100010.5
2018-12-10T01:58:17.723Z,100006.88
2018-12-10T02:01:45.582Z,100023.1
2018-12-10T02:05:13.429Z,100015.51
2018-12-10T02:08:41.262Z,100023.09
2018-12-10T02:12:09.117Z,100020.85
2018-12-10T02:15:37.967Z,100032.06
2018-12-10T02:19:05.815Z,100047.39
2018-12-10T02:22:33.659Z,100044.99
2018-12-10T02:26:02.420Z,100046.02
2018-12-10T02:29:30.268Z,100048.75
2018-12-10T02:32:58.123Z,100044.04
2018-12-10T02:36:26.964Z,100039.41
2018-12-10T02:39:54.816Z,100050.36
2018-12-10T02:43:22.655Z,100057.57
2018-12-10T02:46:50.504Z,100053.12
2018-12-10T02:50:18.355Z,100061.21
2018-12-10T02:53:46.192Z,100065.64
2018-12-10T02:57:14.043Z,100063.19
2018-12-10T03:00:42.877Z,100066.98
2018-12-10T03:04:10.715Z,100071.37
2018-12-10T03:07:38.565Z,100086.17
2018-12-10T03:11:06.422Z,100090.89
2018-12-10T03:14:34.247Z,100091.87
2018-12-10T03:18:02.091Z,100093.53
2018-12-10T03:21:29.937Z,100091.84
2018-12-10T03:24:57.782Z,100101.67
2018-12-10T03:28:25.619Z,100107.26
2018-12-10T03:31:54.638Z,100108.96
2018-12-10T03:35:22.312Z,100116.87
2018-12-10T03:38:50.146Z,100115.37
2018-12-10T03:42:18.078Z,100119.3
2018-12-10T03:45:45.933Z,100125.34
2018-12-10T03:49:15.756Z,100127.06
2018-12-10T03:52:43.610Z,100114.85
2018-12-10T03:56:11.462Z,100128.23
2018-12-10T03:59:39.300Z,100122.18
2018-12-10T04:03:07.158Z,100142.01
2018-12-10T04:06:35.006Z,100143.3
2018-12-10T04:10:02.862Z,100146.63
2018-12-10T04:13:30.703Z,100144.85
2018-12-10T04:16:58.556Z,100151.84
2018-12-10T04:20:26.403Z,100165.3
2018-12-10T04:23:54.244Z,100166.89
2018-12-10T04:27:22.095Z,100151.59
2018-12-10T04:30:49.943Z,100178.06
2018-12-10T04:34:17.775Z,100159.67
2018-12-10T04:37:45.617Z,100164.32
2018-12-10T04:41:13.473Z,100170.93
2018-12-10T04:44:41.317Z,100175.38
2018-12-10T04:48:09.167Z,100178.1
2018-12-10T04:51:37.083Z,100192.81
2018-12-10T04:55:04.926Z,100190.31
2018-12-10T04:58:32.884Z,100193.31
2018-12-10T05:02:00.733Z,100196.31
2018-12-10T05:05:28.806Z,100191.92
2018-12-10T05:08:56.649Z,100193.96
2018-12-10T05:12:24.571Z,100201.61
2018-12-10T05:15:53.344Z,100206.54
2018-12-10T05:19:21.177Z,100196.8
2018-12-10T05:22:49.064Z,100203.78
2018-12-10T05:26:16.883Z,100224.94
2018-12-10T05:29:44.762Z,100216.12
2018-12-10T05:33:12.641Z,100215.48
2018-12-10T05:36:40.491Z,100229.53
2018-12-10T05:40:08.456Z,100233.82
2018-12-10T05:43:37.293Z,100226.06
2018-12-10T05:47:05.153Z,100233.81
2018-12-10T05:50:32.994Z,100237.51
2018-12-10T05:54:00.828Z,100245.28
2018-12-10T05:57:29.667Z,100253.95
2018-12-10T06:00:57.627Z,100245.34
2018-12-10T06:04:25.353Z,100261.7
2018-12-10T06:07:53.202Z,100259.5
2018-12-10T06:11:21.052Z,100262.55
2018-12-10T06:14:48.896Z,100266.09
2018-12-10T06:18:16.738Z,100269.17
2018-12-10T06:21:44.596Z,100273.82
2018-12-10T06:25:12.433Z,100274.26
2018-12-10T06:28:40.287Z,100289.01
2018-12-10T06:32:10.119Z,100288.49
2018-12-10T06:35:37.969Z,100284
2018-12-10T06:39:05.805Z,100307.73
2018-12-10T06:42:33.658Z,100285.92
2018-12-10T06:46:01.504Z,100292.17
2018-12-10T06:49:29.462Z,100299.75
2018-12-10T06:52:57.295Z,100294.13
2018-12-10T06:56:25.146Z,100304.54
2018-12-10T06:59:52.995Z,100302.74
2018-12-10T07:03:20.831Z,100306.54
2018-12-10T07:06:48.682Z,100313.11
2018-12-10T07:10:16.535Z,100337.33
2018-12-10T07:13:44.370Z,100321.09
2018-12-10T07:17:12.221Z,100327.65
2018-12-10T07:20:40.063Z,100330.62
2018-12-10T07:24:07.898Z,100333.9
2018-12-10T07:27:36.740Z,100341.04
2018-12-10T07:31:04.587Z,100336.37
2018-12-10T07:34:32.445Z,100330.87
2018-12-10T07:38:01.488Z,100335.28
2018-12-10T07:41:29.341Z,100356.32
2018-12-10T07:44:57.192Z,100348.88
2018-12-10T07:48:25.029Z,100358.9
2018-12-10T07:51:53.615Z,100357.37
2018-12-10T07:55:21.459Z,100362.6
2018-12-10T07:58:49.296Z,100382.07
2018-12-10T08:02:17.149Z,100381.7
2018-12-10T08:05:45.994Z,100363.78
2018-12-10T08:09:13.845Z,100360.15
2018-12-10T08:12:41.681Z,100372.58
2018-12-10T08:16:09.533Z,100380.84
2018-12-10T08:19:37.383Z,100379.65
2018-12-10T08:23:06.210Z,100388.35
2018-12-10T08:26:34.062Z,100395.52
2018-12-10T08:30:01.976Z,100383
2018-12-10T08:33:29.763Z,100394.75
2018-12-10T08:36:57.612Z,100394.68
2018-12-10T08:40:25.616Z,100399.92
2018-12-10T08:43:54.431Z,100395.42
2018-12-10T08:47:22.287Z,100409.28
2018-12-10T08:50:50.135Z,100411.89
2018-12-10T08:54:17.971Z,100417.36
2018-12-10T08:57:45.823Z,100407.29
2018-12-10T09:01:13.682Z,100422.65
2018-12-10T09:04:41.522Z,100420.21
2018-12-10T09:08:10.380Z,100416.56
2018-12-10T09:11:38.232Z,100421.37
2018-12-10T09:15:06.084Z,100427.09
2018-12-10T09:18:34.917Z,100443.59
2018-12-10T09:22:02.767Z,100452.04
2018-12-10T09:25:31.328Z,100445.59
2018-12-10T09:28:59.159Z,100442.33
2018-12-10T09:32:27.015Z,100457.96
2018-12-10T09:35:54.867Z,100449.48
2018-12-10T09:39:22.706Z,100455.31
2018-12-10T09:42:50.551Z,100450.39
2018-12-10T09:46:18.401Z,100449.7
2018-12-10T09:49:50.202Z,100453.23
2018-12-10T09:53:18.065Z,100451.99
2018-12-10T09:56:45.923Z,100461.56
2018-12-10T10:00:14.573Z,100458.71
2018-12-10T10:03:42.412Z,100455.28
2018-12-10T10:07:10.253Z,100459.72
2018-12-10T10:10:38.814Z,100488.1
2018-12-10T10:14:06.653Z,100458.96
2018-12-10T10:17:34.508Z,100473.93
2018-12-10T10:21:02.366Z,100470.93
2018-12-10T10:24:32.191Z,100465.03
2018-12-10T10:28:00.055Z,100483.21
2018-12-10T10:31:27.911Z,100465.35
2018-12-10T10:34:56.746Z,100488.76
2018-12-10T10:38:24.594Z,100486.92
2018-12-10T10:41:52.440Z,100482.59
2018-12-10T10:45:24.076Z,100474.14
2018-12-10T10:48:54.887Z,100490.86
2018-12-10T10:52:22.737Z,100508.21
2018-12-10T10:55:52.577Z,100494.46
2018-12-10T10:59:21.408Z,100499.57
2018-12-10T11:02:49.259Z,100487.58
2018-12-10T11:06:17.116Z,100482.07
2018-12-10T11:09:44.952Z,100483.22
2018-12-10T11:13:12.805Z,100487.35
2018-12-10T11:16:40.655Z,100477.25
2018-12-10T11:20:08.491Z,100488.46
2018-12-10T11:23:36.338Z,100476.32
2018-12-10T11:27:04.286Z,100480.17
2018-12-10T11:30:32.031Z,100484.85
2018-12-10T11:33:59.870Z,100501.62
2018-12-10T11:37:27.725Z,100480.78
2018-12-10T11:40:55.583Z,100485.21
2018-12-10T11:44:24.417Z,100481.75
2018-12-10T11:47:52.276Z,100502.68
2018-12-10T11:51:20.134Z,100482.14
2018-12-10T11:54:48.825Z,100469.12
2018-12-10T11:58:16.668Z,100471.03
2018-12-10T12:01:44.522Z,100470.03
2018-12-10T12:05:12.362Z,100472.92
2018-12-10T12:08:40.290Z,100467.62
2018-12-10T12:12:08.736Z,100472.28
2018-12-10T12:15:37.570Z,100468.89
2018-12-10T12:19:11.191Z,100467.07
2018-12-10T12:22:37.237Z,100489.21
2018-12-10T12:26:05.091Z,100467.66
2018-12-10T12:29:33.923Z,100471.53
2018-12-10T12:33:02.876Z,100470.21
2018-12-10T12:36:31.718Z,100469.1
2018-12-10T12:39:59.554Z,100462.18
2018-12-10T12:43:27.410Z,100470.11
2018-12-10T12:46:55.268Z,100451.12
2018-12-10T12:50:23.107Z,100453.09
2018-12-10T12:53:51.575Z,100460.05
2018-12-10T12:57:19.536Z,100478.56
2018-12-10T13:00:48.134Z,100456.78
2018-12-10T13:04:17.211Z,100459.37
2018-12-10T13:07:45.797Z,100471.84
2018-12-10T13:11:13.677Z,100460.59
2018-12-10T13:14:41.513Z,100466.49
2018-12-10T13:18:09.376Z,100469.42
2018-12-10T13:21:37.224Z,100453.11
2018-12-10T13:25:05.063Z,100464.93
2018-12-10T13:28:32.917Z,100484.87
2018-12-10T13:32:01.764Z,100472.31
2018-12-10T13:35:29.610Z,100466.85
2018-12-10T13:38:58.435Z,100470.18
2018-12-10T13:42:26.298Z,100472.37
2018-12-10T13:45:55.181Z,100481.04
2018-12-10T13:49:22.970Z,100473.04
2018-12-10T13:52:50.838Z,100465.84
2018-12-10T13:56:20.681Z,100476.65
2018-12-10T13:59:50.008Z,100465.51
2018-12-10T14:03:18.682Z,100467.51
2018-12-10T14:06:47.582Z,100465.14
2018-12-10T14:10:15.634Z,100479.48
2018-12-10T14:13:43.551Z,100473.57
2018-12-10T14:17:13.245Z,100459.17
2018-12-10T14:20:44.294Z,100464.4
2018-12-10T14:24:12.155Z,100455.6
2018-12-10T14:27:41.632Z,100448.96
2018-12-10T14:31:10.667Z,100446.39
2018-12-10T14:34:42.117Z,100445.21
2018-12-10T14:38:10.009Z,100451.89
2018-12-10T14:41:37.874Z,100456.95
2018-12-10T14:45:05.746Z,100460.79
2018-12-10T14:48:34.653Z,100459.95
2018-12-10T14:52:02.460Z,100463.43
2018-12-10T14:55:30.307Z,100469.5
2018-12-10T14:58:58.183Z,100457.48
2018-12-10T15:02:26.055Z,100458.15
2018-12-10T15:05:53.918Z,100466.68
2018-12-10T15:09:21.782Z,100464.89
2018-12-10T15:12:49.650Z,100463.46
2018-12-10T15:16:17.514Z,100469.46
2018-12-10T15:19:45.360Z,100463.39
2018-12-10T15:23:13.217Z,100461.31
2018-12-10T15:26:41.103Z,100465.21
2018-12-10T15:30:08.952Z,100472.57
2018-12-10T15:33:36.812Z,100474.82
2018-12-10T15:37:04.706Z,100467.65
2018-12-10T15:40:32.546Z,100468.26
2018-12-10T15:44:00.422Z,100482.5
2018-12-10T15:47:28.284Z,100479.74
2018-12-10T15:50:56.120Z,100487.35
2018-12-10T15:54:23.984Z,100490.16
2018-12-10T15:57:52.859Z,100485.27
2018-12-10T16:01:20.872Z,100482.43
2018-12-10T16:04:48.726Z,100493.8
2018-12-10T16:08:16.619Z,100490.15
2018-12-10T16:11:44.506Z,100496.04
2018-12-10T16:15:12.347Z,100501.25
2018-12-10T16:18:40.220Z,100496.04
2018-12-10T16:22:08.087Z,100503.68
2018-12-10T16:25:35.925Z,100503.89
2018-12-10T16:29:04.777Z,100513.54
2018-12-10T16:32:32.650Z,100522.27
2018-12-10T16:36:00.517Z,100517.21
2018-12-10T16:39:28.364Z,100517.57
2018-12-10T16:42:56.229Z,100516.81
2018-12-10T16:46:27.407Z,100508.64
2018-12-10T16:49:57.083Z,100514.88
2018-12-10T16:53:24.947Z,100509.23
2018-12-10T16:56:52.845Z,100514.93
2018-12-10T17:00:22.461Z,100513.5
2018-12-10T17:03:50.310Z,100519.35
2018-12-10T17:07:18.179Z,100526.23
2018-12-10T17:10:46.027Z,100522.64
2018-12-10T17:14:13.891Z,100527.25
2018-12-10T17:17:41.828Z,100529.86
2018-12-10T17:21:09.679Z,100533.03
2018-12-10T17:24:38.257Z,100533.95
2018-12-10T17:28:06.142Z,100529.51
2018-12-10T17:31:35.434Z,100535.04
2018-12-10T17:35:03.327Z,100533.4
2018-12-10T17:38:31.301Z,100538.01
2018-12-10T17:41:59.163Z,100534.92
2018-12-10T17:45:27.025Z,100544.16
2018-12-10T17:48:54.910Z,100551.53
2018-12-10T17:52:22.826Z,100550.73
2018-12-10T17:55:50.673Z,100562.04
2018-12-10T17:59:18.571Z,100567.65
2018-12-10T18:02:47.425Z,100571.62
2018-12-10T18:06:15.394Z,100565.81
2018-12-10T18:09:43.269Z,100568.89
2018-12-10T18:13:11.171Z,100570.93
2018-12-10T18:16:39.035Z,100564.65
2018-12-10T18:20:07.117Z,100569.62
2018-12-10T18:23:35.036Z,100565.96
2018-12-10T18:27:02.930Z,100565.6
2018-12-10T18:30:30.812Z,100572.34
2018-12-10T18:33:58.674Z,100580.53
2018-12-10T18:37:26.545Z,100576.71
2018-12-10T18:40:54.410Z,100570.29
2018-12-10T18:44:22.285Z,100568.37
2018-12-10T18:47:50.163Z,100571.78
2018-12-10T18:51:18.084Z,100577.39
2018-12-10T18:54:45.978Z,100575.82
2018-12-10T18:58:13.880Z,100570.89
2018-12-10T19:01:41.808Z,100569.81
2018-12-10T19:05:09.746Z,100567.79
2018-12-10T19:08:42.012Z,100569.6
2018-12-10T19:12:10.903Z,100568.03
2018-12-10T19:15:40.732Z,100576.89
2018-12-10T19:19:08.402Z,100572.92
2018-12-10T19:22:36.262Z,100574.53
2018-12-10T19:26:04.113Z,100582.89
2018-12-10T19:29:32.932Z,100581.17
2018-12-10T19:33:01.830Z,100580.53
2018-12-10T19:36:29.683Z,100581.35
2018-12-10T19:39:57.539Z,100578.48
2018-12-10T19:43:25.393Z,100576.75
2018-12-10T19:46:53.222Z,100576.28
2018-12-10T19:50:21.092Z,100579.17
2018-12-10T19:53:49.026Z,100585.76
2018-12-10T19:57:16.881Z,100582.75
2018-12-10T20:00:44.729Z,100581.6
2018-12-10T20:04:12.619Z,100575.7
2018-12-10T20:07:40.447Z,100575.03
2018-12-10T20:11:08.287Z,100578.87
2018-12-10T20:14:36.141Z,100589.54
2018-12-10T20:18:03.993Z,100595.15
2018-12-10T20:21:32.816Z,100591.78
2018-12-10T20:25:00.673Z,100597.84
2018-12-10T20:28:28.610Z,100597.29
2018-12-10T20:31:56.420Z,100600.17
2018-12-10T20:35:24.286Z,100602.51
2018-12-10T20:38:52.118Z,100599.46
2018-12-10T20:42:19.955Z,100614.17
2018-12-10T20:45:48.016Z,100603.26
2018-12-10T20:49:15.653Z,100597.46
2018-12-10T20:52:43.480Z,100603.07
2018-12-10T20:56:11.339Z,100614.23
2018-12-10T20:59:39.215Z,100608.26
2018-12-10T21:03:07.069Z,100606.81
2018-12-10T21:06:34.914Z,100606.62
2018-12-10T21:10:02.762Z,100597.43
2018-12-10T21:13:30.620Z,100604.01
2018-12-10T21:16:58.467Z,100609.93
2018-12-10T21:20:26.329Z,100608.46
2018-12-10T21:23:54.174Z,100617.89
2018-12-10T21:27:22.011Z,100616.06
2018-12-10T21:30:49.872Z,100614.28
2018-12-10T21:34:17.727Z,100610.59
2018-12-10T21:37:45.569Z,100610.56
2018-12-10T21:41:13.418Z,100602.98
2018-12-10T21:44:42.265Z,100615.32
2018-12-10T21:48:10.111Z,100596.4
2018-12-10T21:51:37.939Z,100591.24
2018-12-10T21:55:05.792Z,100599.42
2018-12-10T21:58:33.634Z,100599.06
2018-12-10T22:02:01.471Z,100590.88
2018-12-10T22:05:29.317Z,100595.2
2018-12-10T22:08:57.169Z,100595.04
2018-12-10T22:12:25.996Z,100593.7
2018-12-10T22:15:53.850Z,100592.4
2018-12-10T22:19:21.703Z,100596.26
2018-12-10T22:22:49.541Z,100612.9
2018-12-10T22:26:17.392Z,100617.03
2018-12-10T22:29:46.229Z,100589.92
2018-12-10T22:33:14.339Z,100588.32
2018-12-10T22:36:42.176Z,100604.96
2018-12-10T22:40:10.029Z,100600.46
2018-12-10T22:43:38.881Z,100583.46
2018-12-10T22:47:06.712Z,100590.68
2018-12-10T22:50:34.568Z,100585.71
2018-12-10T22:54:02.422Z,100588.76
2018-12-10T22:57:31.242Z,100593.08
2018-12-10T23:00:59.083Z,100595.49
2018-12-10T23:04:26.932Z,100612.98
2018-12-10T23:07:54.771Z,100600.82
2018-12-10T23:11:23.615Z,100593.57
2018-12-10T23:14:51.466Z,100589.73
2018-12-10T23:18:19.302Z,100592.49
2018-12-10T23:21:47.144Z,100589.72
2018-12-10T23:25:15.002Z,100599.82
2018-12-10T23:28:43.848Z,100610.25
2018-12-10T23:32:11.684Z,100599.54
2018-12-10T23:35:39.532Z,100600.34
2018-12-10T23:39:07.384Z,100602.27
2018-12-10T23:42:35.220Z,100604.84
2018-12-10T23:46:03.070Z,100592.17
2018-12-10T23:49:30.914Z,100617.2
2018-12-10T23:52:58.750Z,100620.6
2018-12-10T23:56:26.600Z,100617.84
2018-12-10T23:59:54.450Z,100611.81
